createdAt,value
2023-05-20T00:00:04.331Z,100.00
2023-05-20T00:02:54.510Z,100.00
2023-05-20T00:05:22.666Z,100.00
2023-05-20T00:07:50.696Z,100.00
2023-05-20T00:10:18.786Z,100.00
2023-05-20T00:12:46.782Z,100.00
2023-05-20T00:15:14.943Z,100.00
2023-05-20T00:17:43.096Z,100.00
2023-05-20T00:20:11.621Z,100.00
2023-05-20T00:22:39.986Z,100.00
2023-05-20T00:25:08.599Z,100.00
2023-05-20T00:27:36.670Z,100.00
2023-05-20T00:30:05.242Z,100.00
2023-05-20T00:32:35.030Z,100.00
2023-05-20T00:35:03.995Z,100.00
2023-05-20T00:37:32.214Z,100.00
2023-05-20T00:40:00.358Z,100.00
2023-05-20T00:42:29.144Z,100.00
2023-05-20T00:45:00.638Z,100.00
2023-05-20T00:47:32.879Z,100.00
2023-05-20T00:50:02.125Z,100.00
2023-05-20T00:52:32.336Z,100.00
2023-05-20T00:55:01.251Z,100.00
2023-05-20T00:57:30.127Z,100.00
2023-05-20T00:59:58.947Z,100.00
2023-05-20T01:02:27.506Z,100.00
2023-05-20T01:04:56.980Z,100.00
2023-05-20T01:07:26.077Z,100.00
2023-05-20T01:09:56.210Z,100.00
2023-05-20T01:12:32.322Z,100.00
2023-05-20T01:15:11.846Z,100.00
2023-05-20T01:17:45.392Z,100.00
2023-05-20T01:20:15.455Z,100.00
2023-05-20T01:22:49.569Z,100.00
2023-05-20T01:25:17.539Z,100.00
2023-05-20T01:27:49.331Z,100.00
2023-05-20T01:30:17.758Z,100.00
2023-05-20T01:32:52.940Z,100.00
2023-05-20T01:35:23.197Z,100.00
2023-05-20T01:37:53.753Z,100.00
2023-05-20T01:40:22.382Z,100.00
2023-05-20T01:42:53.504Z,100.00
2023-05-20T01:45:23.466Z,100.00
2023-05-20T01:47:52.331Z,100.00
2023-05-20T01:50:20.457Z,100.00
2023-05-20T01:52:48.520Z,100.00
2023-05-20T01:55:16.655Z,100.00
2023-05-20T01:57:45.573Z,100.00
2023-05-20T02:00:13.860Z,100.00
2023-05-20T02:02:42.192Z,100.00
2023-05-20T02:05:12.966Z,100.00
2023-05-20T02:07:43.529Z,100.00
2023-05-20T02:10:11.923Z,100.00
2023-05-20T02:12:40.021Z,100.00
2023-05-20T02:15:08.930Z,100.00
2023-05-20T02:17:37.346Z,100.00
2023-05-20T02:20:07.752Z,100.00
2023-05-20T02:22:36.266Z,100.00
2023-05-20T02:25:05.404Z,100.00
2023-05-20T02:27:33.513Z,100.00
2023-05-20T02:30:01.530Z,100.00
2023-05-20T02:32:29.744Z,100.00
2023-05-20T02:34:57.836Z,100.00
2023-05-20T02:37:27.173Z,100.00
2023-05-20T02:39:56.300Z,100.00
2023-05-20T02:42:25.391Z,100.00
2023-05-20T02:44:56.601Z,100.00
2023-05-20T02:47:25.995Z,100.00
2023-05-20T02:49:54.082Z,100.00
2023-05-20T02:52:22.669Z,100.00
2023-05-20T02:54:50.879Z,100.00
2023-05-20T02:57:20.644Z,100.00
2023-05-20T02:59:49.092Z,100.00
2023-05-20T03:02:18.451Z,100.00
2023-05-20T03:04:47.352Z,100.00
2023-05-20T03:07:19.674Z,100.00
2023-05-20T03:09:48.081Z,100.00
2023-05-20T03:12:16.750Z,100.00
2023-05-20T03:14:45.789Z,100.00
2023-05-20T03:17:14.500Z,100.00
2023-05-20T03:19:45.018Z,100.00
2023-05-20T03:22:13.167Z,100.00
2023-05-20T03:24:43.056Z,100.00
2023-05-20T03:27:14.381Z,100.00
2023-05-20T03:29:44.646Z,100.00
2023-05-20T03:32:12.650Z,100.00
2023-05-20T03:34:40.885Z,100.00
2023-05-20T03:37:08.856Z,100.00
2023-05-20T03:39:37.168Z,100.00
2023-05-20T03:42:05.679Z,100.00
2023-05-20T03:44:33.914Z,100.00
2023-05-20T03:47:02.312Z,100.00
2023-05-20T03:49:31.328Z,100.00
2023-05-20T03:51:59.432Z,100.00
2023-05-20T03:54:28.153Z,100.00
2023-05-20T03:56:56.664Z,100.00
2023-05-20T03:59:24.852Z,100.00
2023-05-20T04:01:53.377Z,100.00
2023-05-20T04:04:21.540Z,100.00
2023-05-20T04:06:50.121Z,100.00
2023-05-20T04:09:18.087Z,100.00
2023-05-20T04:11:46.384Z,100.00
2023-05-20T04:14:15.396Z,100.00
2023-05-20T04:16:43.682Z,100.00
2023-05-20T04:19:12.955Z,100.00
2023-05-20T04:21:43.401Z,100.00
2023-05-20T04:24:11.859Z,100.00
2023-05-20T04:26:40.213Z,100.00
2023-05-20T04:29:08.287Z,100.00
2023-05-20T04:31:36.835Z,100.00
2023-05-20T04:34:04.889Z,100.00
2023-05-20T04:36:34.712Z,100.00
2023-05-20T04:39:06.005Z,100.00
2023-05-20T04:41:34.158Z,100.00
2023-05-20T04:44:02.510Z,100.00
2023-05-20T04:46:31.803Z,100.00
2023-05-20T04:49:01.013Z,100.00
2023-05-20T04:51:30.266Z,100.00
2023-05-20T04:53:59.134Z,100.00
2023-05-20T04:56:29.710Z,100.00
2023-05-20T04:58:58.590Z,100.00
2023-05-20T05:01:26.739Z,100.00
2023-05-20T05:03:55.069Z,100.00
2023-05-20T05:06:23.453Z,100.00
2023-05-20T05:08:51.422Z,100.00
2023-05-20T05:11:19.932Z,100.00
2023-05-20T05:13:48.174Z,100.00
2023-05-20T05:16:16.351Z,100.00
2023-05-20T05:18:44.381Z,100.00
2023-05-20T05:21:12.455Z,100.00
2023-05-20T05:23:42.597Z,100.00
2023-05-20T05:26:11.091Z,100.00
2023-05-20T05:28:41.365Z,100.00
2023-05-20T05:31:12.199Z,100.00
2023-05-20T05:33:40.319Z,100.00
2023-05-20T05:36:09.028Z,100.00
2023-05-20T05:38:37.319Z,100.00
2023-05-20T05:41:05.483Z,100.00
2023-05-20T05:43:35.746Z,100.00
2023-05-20T05:46:05.439Z,100.00
2023-05-20T05:48:33.690Z,100.00
2023-05-20T05:51:01.746Z,100.00
2023-05-20T05:53:32.386Z,100.00
2023-05-20T05:56:00.501Z,100.00
2023-05-20T05:58:29.137Z,100.00
2023-05-20T06:00:57.620Z,100.00
2023-05-20T06:03:25.783Z,100.00
2023-05-20T06:05:54.734Z,100.00
2023-05-20T06:08:23.266Z,100.00
2023-05-20T06:10:51.585Z,100.00
2023-05-20T06:13:20.796Z,100.00
2023-05-20T06:15:53.797Z,100.00
2023-05-20T06:18:21.890Z,100.00
2023-05-20T06:20:58.537Z,100.00
2023-05-20T06:23:27.058Z,100.00
2023-05-20T06:26:00.205Z,100.00
2023-05-20T06:28:30.303Z,100.00
2023-05-20T06:30:58.949Z,100.00
2023-05-20T06:33:29.892Z,100.00
2023-05-20T06:36:03.629Z,100.00
2023-05-20T06:38:32.271Z,100.00
2023-05-20T06:41:01.083Z,100.00
2023-05-20T06:43:29.515Z,100.00
2023-05-20T06:46:12.451Z,100.00
2023-05-20T06:48:48.925Z,100.00
2023-05-20T06:51:18.073Z,100.00
2023-05-20T06:53:48.589Z,100.00
2023-05-20T06:56:17.555Z,100.00
2023-05-20T06:58:45.657Z,100.00
2023-05-20T07:01:16.023Z,100.00
2023-05-20T07:03:46.129Z,100.00
2023-05-20T07:06:14.433Z,100.00
2023-05-20T07:08:45.317Z,100.00
2023-05-20T07:11:13.922Z,100.00
2023-05-20T07:13:42.083Z,100.00
2023-05-20T07:16:15.100Z,100.00
2023-05-20T07:18:47.314Z,100.00
2023-05-20T07:21:16.265Z,100.00
2023-05-20T07:23:58.972Z,99.64
2023-05-20T07:26:28.246Z,99.70
2023-05-20T07:28:56.361Z,98.65
2023-05-20T07:31:24.758Z,95.84
2023-05-20T07:33:54.446Z,94.69
2023-05-20T07:36:25.582Z,92.04
2023-05-20T07:39:03.195Z,92.98
2023-05-20T07:41:36.910Z,93.92
2023-05-20T07:44:12.483Z,94.08
2023-05-20T07:46:43.624Z,93.26
2023-05-20T07:49:12.654Z,91.87
2023-05-20T07:51:41.713Z,90.60
2023-05-20T07:54:10.865Z,88.67
2023-05-20T07:56:39.013Z,87.85
2023-05-20T07:59:12.173Z,84.19
2023-05-20T08:01:46.098Z,82.72
2023-05-20T08:04:16.475Z,81.47
2023-05-20T08:06:46.890Z,82.77
2023-05-20T08:09:21.813Z,79.83
2023-05-20T08:11:51.907Z,77.54
2023-05-20T08:14:20.316Z,79.43
2023-05-20T08:16:53.817Z,77.75
2023-05-20T08:19:23.930Z,78.92
2023-05-20T08:21:52.610Z,77.16
2023-05-20T08:24:21.532Z,74.57
2023-05-20T08:26:50.629Z,76.83
2023-05-20T08:29:19.385Z,76.85
2023-05-20T08:31:49.223Z,73.94
2023-05-20T08:34:17.656Z,75.04
2023-05-20T08:36:46.216Z,74.72
2023-05-20T08:39:15.376Z,74.99
2023-05-20T08:41:44.207Z,75.14
2023-05-20T08:44:13.722Z,72.88
2023-05-20T08:46:44.242Z,71.06
2023-05-20T08:49:14.587Z,66.25
2023-05-20T08:51:43.204Z,66.99
2023-05-20T08:54:17.014Z,65.86
2023-05-20T08:56:45.995Z,62.99
2023-05-20T08:59:17.498Z,60.94
2023-05-20T09:01:46.210Z,62.19
2023-05-20T09:04:14.356Z,58.03
2023-05-20T09:06:47.947Z,56.70
2023-05-20T09:09:16.146Z,56.44
2023-05-20T09:11:44.591Z,56.66
2023-05-20T09:14:12.758Z,56.99
2023-05-20T09:16:41.696Z,59.80
2023-05-20T09:19:11.113Z,60.28
2023-05-20T09:21:42.288Z,61.31
2023-05-20T09:24:10.359Z,60.51
2023-05-20T09:26:38.585Z,61.15
2023-05-20T09:29:08.944Z,59.67
2023-05-20T09:31:40.687Z,58.66
2023-05-20T09:34:09.815Z,59.65
2023-05-20T09:36:40.103Z,62.31
2023-05-20T09:39:12.295Z,61.07
2023-05-20T09:42:03.932Z,60.44
2023-05-20T09:44:34.895Z,60.54
2023-05-20T09:47:06.965Z,61.23
2023-05-20T09:49:38.086Z,63.45
2023-05-20T09:52:08.944Z,62.00
2023-05-20T09:54:37.781Z,59.59
2023-05-20T09:57:08.129Z,56.52
2023-05-20T09:59:39.226Z,54.66
2023-05-20T10:02:09.020Z,54.93
2023-05-20T10:04:43.083Z,54.01
2023-05-20T10:07:42.070Z,52.88
2023-05-20T10:10:15.748Z,54.55
2023-05-20T10:13:14.705Z,55.45
2023-05-20T10:16:07.045Z,55.59
2023-05-20T10:18:47.843Z,54.09
2023-05-20T10:21:17.948Z,52.96
2023-05-20T10:23:46.436Z,52.23
2023-05-20T10:26:14.610Z,51.33
2023-05-20T10:28:43.667Z,50.92
2023-05-20T10:31:22.675Z,51.18
2023-05-20T10:33:59.049Z,50.31
2023-05-20T10:36:29.713Z,51.01
2023-05-20T10:39:01.009Z,50.52
2023-05-20T10:41:29.548Z,49.58
2023-05-20T10:44:07.592Z,46.83
2023-05-20T10:46:48.660Z,45.24
2023-05-20T10:49:34.404Z,44.58
2023-05-20T10:52:04.417Z,44.11
2023-05-20T10:54:47.347Z,44.82
2023-05-20T10:57:18.716Z,45.84
2023-05-20T10:59:47.725Z,46.16
2023-05-20T11:02:17.447Z,46.12
2023-05-20T11:04:49.421Z,46.25
2023-05-20T11:07:28.542Z,45.72
2023-05-20T11:10:01.179Z,44.90
2023-05-20T11:12:31.756Z,41.32
2023-05-20T11:15:00.239Z,39.60
2023-05-20T11:17:28.615Z,37.94
2023-05-20T11:20:00.950Z,38.14
2023-05-20T11:22:29.213Z,37.62
2023-05-20T11:24:57.239Z,37.57
2023-05-20T11:27:25.359Z,37.79
2023-05-20T11:29:54.419Z,37.75
2023-05-20T11:32:23.390Z,38.17
2023-05-20T11:34:52.791Z,37.75
2023-05-20T11:37:22.086Z,37.10
2023-05-20T11:40:13.561Z,37.32
2023-05-20T11:42:45.747Z,36.74
2023-05-20T11:45:14.530Z,35.57
2023-05-20T11:47:42.764Z,35.16
2023-05-20T11:50:18.972Z,35.34
2023-05-20T11:53:00.028Z,34.68
2023-05-20T11:55:28.337Z,35.12
2023-05-20T11:57:59.150Z,36.56
2023-05-20T12:00:31.293Z,37.94
2023-05-20T12:03:04.875Z,37.33
2023-05-20T12:05:33.185Z,36.38
2023-05-20T12:08:01.913Z,35.45
2023-05-20T12:10:31.336Z,34.98
2023-05-20T12:12:59.963Z,33.97
2023-05-20T12:15:30.867Z,33.90
2023-05-20T12:17:59.187Z,33.90
2023-05-20T12:20:27.441Z,34.13
2023-05-20T12:22:55.887Z,34.21
2023-05-20T12:25:24.376Z,34.13
2023-05-20T12:27:53.190Z,33.61
2023-05-20T12:30:23.281Z,34.09
2023-05-20T12:32:52.848Z,34.89
2023-05-20T12:35:39.078Z,34.57
2023-05-20T12:38:07.393Z,33.66
2023-05-20T12:40:37.319Z,34.16
2023-05-20T12:43:06.344Z,35.17
2023-05-20T12:45:34.555Z,36.81
2023-05-20T12:48:10.009Z,40.48
2023-05-20T12:50:39.940Z,49.39
2023-05-20T12:53:10.444Z,74.40
2023-05-20T12:55:39.645Z,95.38
2023-05-20T12:58:10.554Z,100.00
2023-05-20T13:00:39.328Z,100.00
2023-05-20T13:03:07.728Z,100.00
2023-05-20T13:05:36.780Z,100.00
2023-05-20T13:08:05.799Z,100.00
2023-05-20T13:10:34.386Z,100.00
2023-05-20T13:13:02.757Z,100.00
2023-05-20T13:15:33.433Z,100.00
2023-05-20T13:18:06.126Z,100.00
2023-05-20T13:20:34.441Z,100.00
2023-05-20T13:23:03.099Z,100.00
2023-05-20T13:25:32.097Z,100.00
2023-05-20T13:28:01.439Z,100.00
2023-05-20T13:30:30.147Z,100.00
2023-05-20T13:32:58.751Z,100.00
2023-05-20T13:35:26.945Z,100.00
2023-05-20T13:37:55.101Z,100.00
2023-05-20T13:40:23.154Z,100.00
2023-05-20T13:42:51.365Z,100.00
2023-05-20T13:45:23.721Z,100.00
2023-05-20T13:47:51.845Z,100.00
2023-05-20T13:50:20.126Z,100.00
2023-05-20T13:52:48.320Z,100.00
2023-05-20T13:55:16.398Z,100.00
2023-05-20T13:57:44.686Z,100.00
2023-05-20T14:00:15.202Z,100.00
2023-05-20T14:02:43.389Z,100.00
2023-05-20T14:05:11.925Z,100.00
2023-05-20T14:07:40.027Z,100.00
2023-05-20T14:10:09.345Z,100.00
2023-05-20T14:12:38.372Z,100.00
2023-05-20T14:15:07.577Z,100.00
2023-05-20T14:17:35.861Z,100.00
2023-05-20T14:20:04.827Z,100.00
2023-05-20T14:22:36.578Z,100.00
2023-05-20T14:25:05.987Z,100.00
2023-05-20T14:27:35.054Z,100.00
2023-05-20T14:30:03.812Z,100.00
2023-05-20T14:32:33.203Z,100.00
2023-05-20T14:35:01.912Z,100.00
2023-05-20T14:37:30.577Z,100.00
2023-05-20T14:39:58.950Z,100.00
2023-05-20T14:42:27.331Z,100.00
2023-05-20T14:44:55.514Z,100.00
2023-05-20T14:47:24.543Z,100.00
2023-05-20T14:49:53.024Z,100.00
2023-05-20T14:52:21.193Z,100.00
2023-05-20T14:54:50.977Z,100.00
2023-05-20T14:57:21.925Z,100.00
2023-05-20T14:59:52.589Z,100.00
2023-05-20T15:02:21.025Z,100.00
2023-05-20T15:04:49.867Z,100.00
2023-05-20T15:07:18.311Z,100.00
2023-05-20T15:09:50.091Z,100.00
2023-05-20T15:12:20.619Z,100.00
2023-05-20T15:14:48.703Z,100.00
2023-05-20T15:17:17.246Z,100.00
2023-05-20T15:19:45.432Z,100.00
2023-05-20T15:22:13.496Z,100.00
2023-05-20T15:24:41.663Z,100.00
2023-05-20T15:27:09.927Z,100.00
2023-05-20T15:29:38.941Z,100.00
2023-05-20T15:32:09.720Z,100.00
2023-05-20T15:34:37.789Z,100.00
2023-05-20T15:37:06.162Z,100.00
2023-05-20T15:39:37.785Z,100.00
2023-05-20T15:42:06.652Z,100.00
2023-05-20T15:44:36.160Z,100.00
2023-05-20T15:47:06.174Z,100.00
2023-05-20T15:49:34.489Z,100.00
2023-05-20T15:52:04.393Z,100.00
2023-05-20T15:54:35.292Z,100.00
2023-05-20T15:57:03.692Z,100.00
2023-05-20T15:59:32.401Z,100.00
2023-05-20T16:02:01.433Z,100.00
2023-05-20T16:04:31.639Z,100.00
2023-05-20T16:07:01.869Z,100.00
2023-05-20T16:09:30.967Z,100.00
2023-05-20T16:11:59.253Z,100.00
2023-05-20T16:14:28.204Z,100.00
2023-05-20T16:16:56.320Z,100.00
2023-05-20T16:19:24.492Z,100.00
2023-05-20T16:21:52.836Z,100.00
2023-05-20T16:24:21.341Z,100.00
2023-05-20T16:26:49.381Z,100.00
2023-05-20T16:29:18.971Z,100.00
2023-05-20T16:31:47.401Z,100.00
2023-05-20T16:34:16.829Z,100.00
2023-05-20T16:36:47.740Z,100.00
2023-05-20T16:39:16.119Z,100.00
2023-05-20T16:41:44.906Z,100.00
2023-05-20T16:44:13.089Z,100.00
2023-05-20T16:46:41.642Z,100.00
2023-05-20T16:49:09.764Z,100.00
2023-05-20T16:51:38.036Z,100.00
2023-05-20T16:54:08.305Z,100.00
2023-05-20T16:56:37.774Z,100.00
2023-05-20T16:59:06.305Z,100.00
2023-05-20T17:01:34.630Z,100.00
2023-05-20T17:04:04.691Z,100.00
2023-05-20T17:06:34.563Z,100.00
2023-05-20T17:09:04.565Z,100.00
2023-05-20T17:11:34.493Z,100.00
2023-05-20T17:14:03.335Z,100.00
2023-05-20T17:16:32.444Z,100.00
2023-05-20T17:19:01.452Z,100.00
2023-05-20T17:21:29.903Z,100.00
2023-05-20T17:23:58.122Z,100.00
2023-05-20T17:26:26.355Z,100.00
2023-05-20T17:28:57.355Z,100.00
2023-05-20T17:31:26.186Z,100.00
2023-05-20T17:33:54.941Z,100.00
2023-05-20T17:36:23.964Z,100.00
2023-05-20T17:38:52.329Z,100.00
2023-05-20T17:41:21.915Z,100.00
2023-05-20T17:43:50.048Z,100.00
2023-05-20T17:46:18.755Z,100.00
2023-05-20T17:48:46.977Z,100.00
2023-05-20T17:51:15.432Z,100.00
2023-05-20T17:53:43.790Z,100.00
2023-05-20T17:56:11.877Z,100.00
2023-05-20T17:58:40.036Z,100.00
2023-05-20T18:01:11.816Z,100.00
2023-05-20T18:03:40.645Z,100.00
2023-05-20T18:06:08.939Z,100.00
2023-05-20T18:08:37.473Z,100.00
2023-05-20T18:11:05.732Z,100.00
2023-05-20T18:13:35.621Z,100.00
2023-05-20T18:16:05.009Z,100.00
2023-05-20T18:18:33.333Z,100.00
2023-05-20T18:21:01.729Z,100.00
2023-05-20T18:23:29.916Z,100.00
2023-05-20T18:25:58.046Z,100.00
2023-05-20T18:28:26.644Z,100.00
2023-05-20T18:31:00.300Z,100.00
2023-05-20T18:33:28.372Z,100.00
2023-05-20T18:35:56.877Z,100.00
2023-05-20T18:38:26.082Z,100.00
2023-05-20T18:40:55.224Z,100.00
2023-05-20T18:43:23.460Z,100.00
2023-05-20T18:45:51.854Z,100.00
2023-05-20T18:48:26.666Z,100.00
2023-05-20T18:50:57.927Z,100.00
2023-05-20T18:53:26.150Z,100.00
2023-05-20T18:55:54.342Z,100.00
2023-05-20T18:58:22.703Z,100.00
2023-05-20T19:00:51.182Z,100.00
2023-05-20T19:03:19.702Z,100.00
2023-05-20T19:05:48.216Z,100.00
2023-05-20T19:08:16.885Z,100.00
2023-05-20T19:10:44.946Z,100.00
2023-05-20T19:13:13.176Z,100.00
2023-05-20T19:15:41.886Z,100.00
2023-05-20T19:18:10.084Z,100.00
2023-05-20T19:20:39.407Z,100.00
2023-05-20T19:23:07.607Z,100.00
2023-05-20T19:25:36.557Z,100.00
2023-05-20T19:28:06.176Z,100.00
2023-05-20T19:30:37.535Z,100.00
2023-05-20T19:33:06.303Z,100.00
2023-05-20T19:35:37.085Z,100.00
2023-05-20T19:38:06.994Z,100.00
2023-05-20T19:40:36.266Z,100.00
2023-05-20T19:43:04.855Z,100.00
2023-05-20T19:45:33.068Z,100.00
2023-05-20T19:48:01.646Z,100.00
2023-05-20T19:50:30.510Z,100.00
2023-05-20T19:52:59.496Z,100.00
2023-05-20T19:55:27.802Z,100.00
2023-05-20T19:57:56.417Z,100.00
2023-05-20T20:00:24.810Z,100.00
2023-05-20T20:02:53.367Z,100.00
2023-05-20T20:05:23.933Z,100.00
2023-05-20T20:07:52.209Z,100.00
2023-05-20T20:10:22.143Z,100.00
2023-05-20T20:12:50.546Z,100.00
2023-05-20T20:15:20.504Z,100.00
2023-05-20T20:17:52.239Z,100.00
2023-05-20T20:20:20.647Z,100.00
2023-05-20T20:22:48.833Z,100.00
2023-05-20T20:25:17.237Z,100.00
2023-05-20T20:27:45.603Z,100.00
2023-05-20T20:30:14.810Z,100.00
2023-05-20T20:32:42.877Z,100.00
2023-05-20T20:35:11.380Z,100.00
2023-05-20T20:37:39.486Z,100.00
2023-05-20T20:40:13.376Z,100.00
2023-05-20T20:42:45.055Z,100.00
2023-05-20T20:45:15.214Z,100.00
2023-05-20T20:47:45.400Z,100.00
2023-05-20T20:50:13.539Z,100.00
2023-05-20T20:52:42.913Z,100.00
2023-05-20T20:55:12.157Z,100.00
2023-05-20T20:57:42.065Z,100.00
2023-05-20T21:00:17.763Z,100.00
2023-05-20T21:02:48.538Z,100.00
2023-05-20T21:05:16.943Z,100.00
2023-05-20T21:07:53.282Z,100.00
2023-05-20T21:10:22.062Z,100.00
2023-05-20T21:12:50.287Z,100.00
2023-05-20T21:15:18.634Z,100.00
2023-05-20T21:17:47.233Z,100.00
2023-05-20T21:20:19.477Z,100.00
2023-05-20T21:22:51.372Z,100.00
2023-05-20T21:25:20.449Z,100.00
2023-05-20T21:27:48.576Z,100.00
2023-05-20T21:30:17.867Z,100.00
2023-05-20T21:32:46.012Z,100.00
2023-05-20T21:35:16.605Z,100.00
2023-05-20T21:37:44.641Z,100.00
2023-05-20T21:40:13.263Z,100.00
2023-05-20T21:42:41.420Z,100.00
2023-05-20T21:45:10.720Z,100.00
2023-05-20T21:47:39.401Z,100.00
2023-05-20T21:50:09.955Z,100.00
2023-05-20T21:52:39.879Z,100.00
2023-05-20T21:55:10.710Z,100.00
2023-05-20T21:57:38.848Z,100.00
2023-05-20T22:00:15.300Z,100.00
2023-05-20T22:02:43.511Z,100.00
2023-05-20T22:05:12.052Z,100.00
2023-05-20T22:07:47.519Z,100.00
2023-05-20T22:10:17.561Z,100.00
2023-05-20T22:12:45.808Z,100.00
2023-05-20T22:15:14.012Z,100.00
2023-05-20T22:17:42.384Z,100.00
2023-05-20T22:20:11.497Z,100.00
2023-05-20T22:22:39.792Z,100.00
2023-05-20T22:25:09.497Z,100.00
2023-05-20T22:27:38.765Z,100.00
2023-05-20T22:30:08.427Z,100.00
2023-05-20T22:32:37.330Z,100.00
2023-05-20T22:35:06.611Z,100.00
2023-05-20T22:37:37.710Z,100.00
2023-05-20T22:40:06.467Z,100.00
2023-05-20T22:42:34.564Z,100.00
2023-05-20T22:45:02.773Z,100.00
2023-05-20T22:47:31.627Z,100.00
2023-05-20T22:50:02.580Z,100.00
2023-05-20T22:52:32.742Z,100.00
2023-05-20T22:55:00.780Z,100.00
2023-05-20T22:57:29.214Z,100.00
2023-05-20T22:59:58.264Z,100.00
2023-05-20T23:02:27.206Z,100.00
2023-05-20T23:04:56.079Z,100.00
2023-05-20T23:07:24.703Z,100.00
2023-05-20T23:09:52.803Z,100.00
2023-05-20T23:12:20.888Z,100.00
2023-05-20T23:14:48.890Z,100.00
2023-05-20T23:17:16.948Z,100.00
2023-05-20T23:19:44.951Z,100.00
2023-05-20T23:22:14.216Z,100.00
2023-05-20T23:24:45.416Z,100.00
2023-05-20T23:27:13.438Z,100.00
2023-05-20T23:29:42.208Z,100.00
2023-05-20T23:32:10.299Z,100.00
2023-05-20T23:34:41.086Z,100.00
2023-05-20T23:37:09.719Z,100.00
2023-05-20T23:39:38.616Z,100.00
2023-05-20T23:42:06.646Z,100.00
2023-05-20T23:44:34.606Z,100.00
2023-05-20T23:47:04.106Z,100.00
2023-05-20T23:49:32.707Z,100.00
2023-05-20T23:52:01.568Z,100.00
2023-05-20T23:54:30.031Z,100.00
2023-05-20T23:56:58.149Z,100.00
2023-05-20T23:59:26.297Z,100.00
